Blackwell, Oklahoma
Current Conditions -  °F | °C
As of 4:35 PM on Saturday 27 Dec 2014 (Local Time) from KBKN Reporting Station
Clear Clear  
Wind Chill: -3°   Ceiling: Unl
Heat Index:   Visibility: 10mi
Dew Point: -7°   Wind: 13mph
Humidity: 52%   Direction: 320°NW
Pressure: 30.28"   Gusts: NA
Location:  36.8°N, 97.28°W
Report Text: KBKN 272235Z AUTO 32011KT 10SM CLR 02/M07 A3028 RMK AO2
Loading
Personal Weather Stations






























Interactive Weather Map New forecast layout! Learn more

10-Day Weather Forecast

Advertisements
Track Severe Weather on mobile